createdAt,value
2023-05-11T00:00:42.048Z,100417.28
2023-05-11T00:03:09.602Z,100417.72
2023-05-11T00:05:37.185Z,100425.91
2023-05-11T00:08:04.667Z,100421.22
2023-05-11T00:10:32.268Z,100417.72
2023-05-11T00:12:59.661Z,100421.72
2023-05-11T00:15:26.993Z,100424.81
2023-05-11T00:17:54.434Z,100417.28
2023-05-11T00:20:23.454Z,100418.97
2023-05-11T00:22:50.977Z,100413.19
2023-05-11T00:25:18.311Z,100411.03
2023-05-11T00:27:46.271Z,100410.94
2023-05-11T00:30:17.128Z,100408.41
2023-05-11T00:32:45.402Z,100411.47
2023-05-11T00:35:13.224Z,100407.16
2023-05-11T00:37:41.377Z,100404.31
2023-05-11T00:40:09.344Z,100394.09
2023-05-11T00:42:36.802Z,100399.69
2023-05-11T00:45:04.577Z,100397.16
2023-05-11T00:47:32.020Z,100398.97
2023-05-11T00:49:59.554Z,100402.63
2023-05-11T00:52:27.419Z,100399.06
2023-05-11T00:54:54.808Z,100396.25
2023-05-11T00:57:22.227Z,100390.56
2023-05-11T00:59:49.940Z,100395.22
2023-05-11T01:02:17.996Z,100391.69
2023-05-11T01:04:45.916Z,100398.19
2023-05-11T01:07:22.396Z,100395.34
2023-05-11T01:10:00.906Z,100392.44
2023-05-11T01:12:48.217Z,100401.91
2023-05-11T01:15:22.027Z,100395.56
2023-05-11T01:17:57.955Z,100391.69
2023-05-11T01:20:30.170Z,100396.03
2023-05-11T01:23:24.922Z,100404.22
2023-05-11T01:26:22.893Z,100392.72
2023-05-11T01:28:56.261Z,100397.28
2023-05-11T01:31:30.181Z,100399.88
2023-05-11T01:34:02.406Z,100403.19
2023-05-11T01:36:34.917Z,100397.41
2023-05-11T01:39:05.563Z,100396.69
2023-05-11T01:41:36.033Z,100403.53
2023-05-11T01:44:09.649Z,100407.63
2023-05-11T01:46:38.671Z,100394.72
2023-05-11T01:49:10.660Z,100392.94
2023-05-11T01:51:39.625Z,100395.66
2023-05-11T01:54:11.076Z,100397.16
2023-05-11T01:56:41.361Z,100406.03
2023-05-11T01:59:09.117Z,100384.28
2023-05-11T02:01:37.596Z,100388.38
2023-05-11T02:04:05.972Z,100396.78
2023-05-11T02:06:36.749Z,100385.31
2023-05-11T02:09:05.327Z,100393.41
2023-05-11T02:11:35.641Z,100398.16
2023-05-11T02:14:04.862Z,100391.34
2023-05-11T02:16:33.860Z,100387.38
2023-05-11T02:19:01.417Z,100388.03
2023-05-11T02:21:31.827Z,100386.59
2023-05-11T02:24:03.319Z,100397.25
2023-05-11T02:26:30.710Z,100397.16
2023-05-11T02:28:58.194Z,100393.03
2023-05-11T02:31:29.095Z,100394.38
2023-05-11T02:34:02.566Z,100394.28
2023-05-11T02:36:33.338Z,100395.88
2023-05-11T02:39:09.553Z,100384.63
2023-05-11T02:41:43.424Z,100393.28
2023-05-11T02:44:15.795Z,100385.66
2023-05-11T02:46:47.960Z,100378.84
2023-05-11T02:49:18.493Z,100380.78
2023-05-11T02:51:47.973Z,100380.09
2023-05-11T02:54:17.552Z,100381.78
2023-05-11T02:56:50.071Z,100374.53
2023-05-11T02:59:17.974Z,100376.66
2023-05-11T03:01:45.924Z,100357.56
2023-05-11T03:04:14.950Z,100363.25
2023-05-11T03:06:42.455Z,100360.50
2023-05-11T03:09:13.631Z,100362.78
2023-05-11T03:11:47.234Z,100361.69
2023-05-11T03:14:14.720Z,100361.91
2023-05-11T03:16:44.185Z,100365.88
2023-05-11T03:19:13.370Z,100362.47
2023-05-11T03:21:41.178Z,100360.97
2023-05-11T03:24:12.532Z,100361.56
2023-05-11T03:26:41.628Z,100357.78
2023-05-11T03:29:12.713Z,100359.84
2023-05-11T03:31:40.194Z,100356.19
2023-05-11T03:34:07.731Z,100349.06
2023-05-11T03:36:40.623Z,100349.50
2023-05-11T03:39:11.532Z,100352.94
2023-05-11T03:41:41.136Z,100351.88
2023-05-11T03:44:14.090Z,100350.53
2023-05-11T03:46:45.662Z,100341.66
2023-05-11T03:49:15.830Z,100342.59
2023-05-11T03:51:44.814Z,100341.22
2023-05-11T03:54:13.072Z,100341.22
2023-05-11T03:56:40.912Z,100344.38
2023-05-11T03:59:09.739Z,100344.88
2023-05-11T04:01:37.322Z,100343.13
2023-05-11T04:04:05.097Z,100331.78
2023-05-11T04:06:32.528Z,100338.03
2023-05-11T04:09:08.294Z,100338.63
2023-05-11T04:11:39.822Z,100339.72
2023-05-11T04:14:07.191Z,100338.03
2023-05-11T04:16:34.648Z,100345.41
2023-05-11T04:19:02.434Z,100340.56
2023-05-11T04:21:29.972Z,100353.38
2023-05-11T04:23:57.440Z,100342.00
2023-05-11T04:26:24.950Z,100342.69
2023-05-11T04:28:52.405Z,100339.84
2023-05-11T04:31:20.661Z,100349.06
2023-05-11T04:33:48.750Z,100347.13
2023-05-11T04:36:17.074Z,100336.91
2023-05-11T04:38:44.830Z,100344.97
2023-05-11T04:41:13.827Z,100351.09
2023-05-11T04:43:41.895Z,100348.13
2023-05-11T04:46:10.767Z,100351.47
2023-05-11T04:48:38.369Z,100354.72
2023-05-11T04:51:06.274Z,100357.34
2023-05-11T04:53:36.932Z,100362.69
2023-05-11T04:56:04.551Z,100357.25
2023-05-11T04:58:32.071Z,100359.75
2023-05-11T05:00:59.535Z,100363.63
2023-05-11T05:03:27.099Z,100366.56
2023-05-11T05:05:55.704Z,100366.13
2023-05-11T05:08:23.230Z,100373.38
2023-05-11T05:10:50.671Z,100364.06
2023-05-11T05:13:18.223Z,100364.19
2023-05-11T05:15:45.719Z,100363.84
2023-05-11T05:18:13.094Z,100363.59
2023-05-11T05:20:40.973Z,100365.19
2023-05-11T05:23:08.385Z,100368.16
2023-05-11T05:25:35.750Z,100367.25
2023-05-11T05:28:03.164Z,100375.31
2023-05-11T05:30:30.651Z,100372.94
2023-05-11T05:32:58.172Z,100362.47
2023-05-11T05:35:26.047Z,100365.75
2023-05-11T05:37:53.894Z,100369.75
2023-05-11T05:40:21.857Z,100374.31
2023-05-11T05:42:53.494Z,100366.69
2023-05-11T05:45:23.047Z,100371.34
2023-05-11T05:47:51.992Z,100369.19
2023-05-11T05:50:20.587Z,100363.50
2023-05-11T05:52:49.113Z,100373.72
2023-05-11T05:55:16.678Z,100372.59
2023-05-11T05:57:46.068Z,100372.59
2023-05-11T06:00:13.967Z,100371.69
2023-05-11T06:02:41.635Z,100369.75
2023-05-11T06:05:14.833Z,100375.78
2023-05-11T06:07:42.997Z,100372.38
2023-05-11T06:10:10.564Z,100375.09
2023-05-11T06:12:38.041Z,100369.66
2023-05-11T06:15:06.637Z,100371.56
2023-05-11T06:17:36.612Z,100375.78
2023-05-11T06:20:07.263Z,100370.88
2023-05-11T06:22:35.471Z,100371.56
2023-05-11T06:25:04.086Z,100367.00
2023-05-11T06:27:31.487Z,100363.28
2023-05-11T06:29:59.833Z,100363.38
2023-05-11T06:32:34.274Z,100354.97
2023-05-11T06:35:02.656Z,100361.69
2023-05-11T06:37:30.533Z,100363.72
2023-05-11T06:39:59.273Z,100368.63
2023-05-11T06:42:27.774Z,100364.28
2023-05-11T06:45:05.896Z,100359.53
2023-05-11T06:47:34.837Z,100371.25
2023-05-11T06:50:02.313Z,100366.09
2023-05-11T06:52:30.025Z,100365.91
2023-05-11T06:54:57.568Z,100369.19
2023-05-11T06:57:24.900Z,100362.13
2023-05-11T06:59:52.311Z,100375.31
2023-05-11T07:02:19.635Z,100371.69
2023-05-11T07:04:47.145Z,100360.22
2023-05-11T07:07:14.659Z,100366.13
2023-05-11T07:09:42.199Z,100369.50
2023-05-11T07:12:09.550Z,100370.91
2023-05-11T07:14:38.362Z,100374.88
2023-05-11T07:17:05.950Z,100380.22
2023-05-11T07:19:33.763Z,100382.47
2023-05-11T07:22:02.118Z,100383.03
2023-05-11T07:24:30.403Z,100391.25
2023-05-11T07:27:02.097Z,100388.75
2023-05-11T07:29:29.552Z,100393.75
2023-05-11T07:31:56.920Z,100391.38
2023-05-11T07:34:24.436Z,100393.97
2023-05-11T07:36:51.741Z,100390.56
2023-05-11T07:39:19.451Z,100386.47
2023-05-11T07:41:47.186Z,100388.97
2023-05-11T07:44:14.685Z,100389.63
2023-05-11T07:46:42.226Z,100379.38
2023-05-11T07:49:17.165Z,100378.34
2023-05-11T07:51:46.156Z,100386.31
2023-05-11T07:54:13.650Z,100385.53
2023-05-11T07:56:41.942Z,100385.53
2023-05-11T07:59:09.376Z,100381.28
2023-05-11T08:01:36.810Z,100386.56
2023-05-11T08:04:04.217Z,100389.88
2023-05-11T08:06:31.573Z,100394.06
2023-05-11T08:08:58.963Z,100392.56
2023-05-11T08:11:26.314Z,100389.72
2023-05-11T08:13:53.747Z,100395.41
2023-05-11T08:16:21.286Z,100398.50
2023-05-11T08:18:49.921Z,100403.59
2023-05-11T08:21:17.643Z,100395.41
2023-05-11T08:23:45.247Z,100392.69
2023-05-11T08:26:12.610Z,100396.75
2023-05-11T08:28:39.953Z,100393.91
2023-05-11T08:31:08.771Z,100399.47
2023-05-11T08:33:38.731Z,100400.34
2023-05-11T08:36:07.267Z,100396.16
2023-05-11T08:38:35.519Z,100394.75
2023-05-11T08:41:03.205Z,100393.41
2023-05-11T08:43:34.533Z,100396.41
2023-05-11T08:46:04.791Z,100396.75
2023-05-11T08:48:32.518Z,100400.81
2023-05-11T08:51:00.486Z,100396.78
2023-05-11T08:53:28.334Z,100397.22
2023-05-11T08:55:58.564Z,100395.50
2023-05-11T08:58:27.447Z,100402.41
2023-05-11T09:00:56.039Z,100408.47
2023-05-11T09:03:23.717Z,100404.06
2023-05-11T09:05:52.292Z,100412.81
2023-05-11T09:08:20.596Z,100408.56
2023-05-11T09:10:49.404Z,100412.41
2023-05-11T09:13:19.452Z,100405.31
2023-05-11T09:15:46.870Z,100405.06
2023-05-11T09:18:14.417Z,100394.69
2023-05-11T09:20:44.749Z,100392.13
2023-05-11T09:23:16.821Z,100404.91
2023-05-11T09:25:44.117Z,100398.84
2023-05-11T09:28:24.842Z,100396.19
2023-05-11T09:30:53.482Z,100397.97
2023-05-11T09:33:25.842Z,100395.31
2023-05-11T09:35:53.500Z,100392.81
2023-05-11T09:38:23.080Z,100393.00
2023-05-11T09:40:51.362Z,100390.72
2023-05-11T09:43:27.259Z,100391.09
2023-05-11T09:45:57.379Z,100393.47
2023-05-11T09:48:27.201Z,100393.72
2023-05-11T09:51:05.820Z,100396.06
2023-05-11T09:53:43.369Z,100398.13
2023-05-11T09:56:12.488Z,100395.56
2023-05-11T09:58:50.669Z,100390.97
2023-05-11T10:01:27.770Z,100393.81
2023-05-11T10:04:13.272Z,100397.91
2023-05-11T10:06:50.813Z,100394.75
2023-05-11T10:09:25.615Z,100394.69
2023-05-11T10:11:55.451Z,100395.53
2023-05-11T10:14:24.811Z,100387.19
2023-05-11T10:16:52.708Z,100394.13
2023-05-11T10:19:20.397Z,100391.72
2023-05-11T10:21:48.196Z,100394.59
2023-05-11T10:24:17.145Z,100397.25
2023-05-11T10:26:45.931Z,100394.97
2023-05-11T10:29:13.975Z,100394.34
2023-05-11T10:31:42.276Z,100398.16
2023-05-11T10:34:10.690Z,100398.94
2023-05-11T10:36:39.066Z,100398.69
2023-05-11T10:39:06.460Z,100403.09
2023-05-11T10:41:47.362Z,100388.88
2023-05-11T10:44:36.024Z,100403.38
2023-05-11T10:47:22.122Z,100392.41
2023-05-11T10:50:16.714Z,100390.56
2023-05-11T10:53:15.209Z,100383.34
2023-05-11T10:56:01.235Z,100387.03
2023-05-11T10:58:46.709Z,100382.00
2023-05-11T11:01:29.033Z,100377.50
2023-05-11T11:04:02.868Z,100377.88
2023-05-11T11:06:31.568Z,100381.69
2023-05-11T11:09:01.215Z,100371.25
2023-05-11T11:11:33.834Z,100377.31
2023-05-11T11:14:03.746Z,100378.94
2023-05-11T11:16:34.732Z,100381.03
2023-05-11T11:19:33.120Z,100380.09
2023-05-11T11:22:01.819Z,100378.16
2023-05-11T11:24:38.429Z,100389.41
2023-05-11T11:27:08.403Z,100383.53
2023-05-11T11:29:37.340Z,100377.41
2023-05-11T11:32:19.823Z,100385.47
2023-05-11T11:34:47.992Z,100381.47
2023-05-11T11:37:16.719Z,100388.91
2023-05-11T11:39:44.141Z,100374.69
2023-05-11T11:42:13.734Z,100382.00
2023-05-11T11:44:43.752Z,100381.84
2023-05-11T11:47:17.995Z,100381.75
2023-05-11T11:49:51.361Z,100385.38
2023-05-11T11:52:27.897Z,100382.47
2023-05-11T11:54:57.136Z,100383.53
2023-05-11T11:57:33.815Z,100386.41
2023-05-11T12:00:10.745Z,100382.25
2023-05-11T12:02:45.458Z,100375.41
2023-05-11T12:05:14.194Z,100381.47
2023-05-11T12:07:43.895Z,100378.72
2023-05-11T12:10:14.078Z,100373.53
2023-05-11T12:12:45.869Z,100375.03
2023-05-11T12:15:31.775Z,100377.41
2023-05-11T12:18:02.106Z,100381.41
2023-05-11T12:20:29.569Z,100370.53
2023-05-11T12:22:57.016Z,100375.94
2023-05-11T12:25:24.590Z,100377.06
2023-05-11T12:27:55.435Z,100371.38
2023-05-11T12:30:30.559Z,100366.56
2023-05-11T12:33:04.232Z,100367.06
2023-05-11T12:35:33.977Z,100362.38
2023-05-11T12:38:02.623Z,100357.50
2023-05-11T12:40:31.171Z,100361.41
2023-05-11T12:43:00.695Z,100362.00
2023-05-11T12:45:29.297Z,100362.50
2023-05-11T12:47:58.385Z,100359.41
2023-05-11T12:50:25.905Z,100353.06
2023-05-11T12:52:53.288Z,100349.19
2023-05-11T12:55:31.075Z,100351.00
2023-05-11T12:58:09.210Z,100347.19
2023-05-11T13:00:36.820Z,100348.53
2023-05-11T13:03:04.751Z,100338.47
2023-05-11T13:05:32.379Z,100345.59
2023-05-11T13:08:01.862Z,100343.66
2023-05-11T13:10:29.721Z,100343.69
2023-05-11T13:12:57.164Z,100344.06
2023-05-11T13:15:25.955Z,100336.81
2023-05-11T13:18:03.480Z,100339.00
2023-05-11T13:20:33.718Z,100330.94
2023-05-11T13:23:08.372Z,100330.75
2023-05-11T13:25:53.958Z,100328.78
2023-05-11T13:28:24.429Z,100329.78
2023-05-11T13:30:59.122Z,100333.81
2023-05-11T13:33:26.753Z,100334.69
2023-05-11T13:35:54.251Z,100339.84
2023-05-11T13:38:21.716Z,100335.78
2023-05-11T13:40:49.148Z,100339.84
2023-05-11T13:43:16.550Z,100333.31
2023-05-11T13:45:44.024Z,100338.81
2023-05-11T13:48:11.440Z,100339.03
2023-05-11T13:50:38.890Z,100332.31
2023-05-11T13:53:06.298Z,100326.84
2023-05-11T13:55:35.330Z,100330.00
2023-05-11T13:58:02.695Z,100331.91
2023-05-11T14:00:34.906Z,100332.41
2023-05-11T14:03:02.620Z,100331.16
2023-05-11T14:05:30.226Z,100330.28
2023-05-11T14:07:57.937Z,100328.88
2023-05-11T14:10:26.095Z,100327.84
2023-05-11T14:12:53.526Z,100329.00
2023-05-11T14:15:21.041Z,100322.56
2023-05-11T14:17:48.812Z,100325.03
2023-05-11T14:20:16.534Z,100322.00
2023-05-11T14:22:43.960Z,100316.44
2023-05-11T14:25:11.280Z,100317.16
2023-05-11T14:27:38.649Z,100317.75
2023-05-11T14:30:07.337Z,100314.59
2023-05-11T14:32:34.831Z,100311.25
2023-05-11T14:35:02.238Z,100323.44
2023-05-11T14:37:29.771Z,100313.78
2023-05-11T14:39:57.209Z,100315.38
2023-05-11T14:42:24.752Z,100316.06
2023-05-11T14:44:52.273Z,100318.63
2023-05-11T14:47:19.654Z,100318.47
2023-05-11T14:49:47.196Z,100324.16
2023-05-11T14:52:14.679Z,100331.22
2023-05-11T14:54:42.605Z,100318.88
2023-05-11T14:57:10.107Z,100325.16
2023-05-11T14:59:47.606Z,100326.81
2023-05-11T15:02:26.038Z,100327.97
2023-05-11T15:04:53.742Z,100332.66
2023-05-11T15:07:21.321Z,100333.97
2023-05-11T15:09:49.716Z,100330.84
2023-05-11T15:12:17.192Z,100330.59
2023-05-11T15:14:44.552Z,100336.59
2023-05-11T15:17:11.900Z,100327.50
2023-05-11T15:19:39.276Z,100340.13
2023-05-11T15:22:06.714Z,100328.03
2023-05-11T15:24:36.829Z,100329.00
2023-05-11T15:27:04.556Z,100322.75
2023-05-11T15:29:32.736Z,100319.34
2023-05-11T15:32:00.209Z,100326.34
2023-05-11T15:34:27.995Z,100324.91
2023-05-11T15:36:58.620Z,100325.56
2023-05-11T15:39:25.952Z,100322.03
2023-05-11T15:41:53.317Z,100323.75
2023-05-11T15:44:20.753Z,100325.44
2023-05-11T15:46:51.133Z,100326.50
2023-05-11T15:49:18.479Z,100326.78
2023-05-11T15:51:45.910Z,100323.44
2023-05-11T15:54:13.221Z,100321.25
2023-05-11T15:56:40.660Z,100326.63
2023-05-11T15:59:07.989Z,100329.09
2023-05-11T16:01:35.743Z,100330.59
2023-05-11T16:04:03.706Z,100328.22
2023-05-11T16:06:32.091Z,100329.78
2023-05-11T16:09:02.048Z,100330.03
2023-05-11T16:11:29.629Z,100331.06
2023-05-11T16:13:57.401Z,100331.84
2023-05-11T16:16:25.318Z,100340.16
2023-05-11T16:18:52.768Z,100329.47
2023-05-11T16:21:20.186Z,100331.06
2023-05-11T16:23:47.590Z,100339.59
2023-05-11T16:26:14.966Z,100339.97
2023-05-11T16:28:43.223Z,100338.38
2023-05-11T16:31:10.614Z,100329.47
2023-05-11T16:33:38.035Z,100337.13
2023-05-11T16:36:05.660Z,100341.53
2023-05-11T16:38:33.037Z,100341.47
2023-05-11T16:41:00.639Z,100343.41
2023-05-11T16:43:28.115Z,100348.28
2023-05-11T16:45:55.868Z,100352.25
2023-05-11T16:48:23.230Z,100346.34
2023-05-11T16:50:50.695Z,100358.34
2023-05-11T16:53:20.221Z,100357.81
2023-05-11T16:55:47.721Z,100355.25
2023-05-11T16:58:15.102Z,100360.66
2023-05-11T17:00:42.438Z,100361.97
2023-05-11T17:03:09.894Z,100364.50
2023-05-11T17:05:37.687Z,100368.50
2023-05-11T17:08:07.549Z,100366.19
2023-05-11T17:10:35.754Z,100362.75
2023-05-11T17:13:03.093Z,100366.38
2023-05-11T17:15:31.706Z,100364.25
2023-05-11T17:17:59.074Z,100367.53
2023-05-11T17:20:26.706Z,100365.41
2023-05-11T17:22:54.032Z,100367.81
2023-05-11T17:25:21.474Z,100366.47
2023-05-11T17:27:48.839Z,100369.91
2023-05-11T17:30:17.373Z,100359.41
2023-05-11T17:32:45.197Z,100364.50
2023-05-11T17:35:13.074Z,100376.88
2023-05-11T17:37:40.387Z,100377.78
2023-05-11T17:40:11.789Z,100382.78
2023-05-11T17:42:39.258Z,100392.94
2023-05-11T17:45:07.806Z,100398.09
2023-05-11T17:47:35.232Z,100403.84
2023-05-11T17:50:02.729Z,100399.31
2023-05-11T17:52:30.057Z,100401.69
2023-05-11T17:54:57.550Z,100400.09
2023-05-11T17:57:25.585Z,100404.78
2023-05-11T17:59:53.614Z,100402.31
2023-05-11T18:02:21.066Z,100399.31
2023-05-11T18:04:48.603Z,100403.19
2023-05-11T18:07:15.949Z,100409.47
2023-05-11T18:09:43.555Z,100405.47
2023-05-11T18:12:11.783Z,100413.88
2023-05-11T18:14:39.210Z,100406.00
2023-05-11T18:17:06.602Z,100409.88
2023-05-11T18:19:34.131Z,100410.13
2023-05-11T18:22:01.550Z,100414.03
2023-05-11T18:24:31.199Z,100410.38
2023-05-11T18:26:58.672Z,100414.28
2023-05-11T18:29:26.178Z,100420.00
2023-05-11T18:31:53.747Z,100417.69
2023-05-11T18:34:21.278Z,100415.31
2023-05-11T18:36:48.594Z,100421.59
2023-05-11T18:39:16.059Z,100420.00
2023-05-11T18:41:43.972Z,100425.56
2023-05-11T18:44:11.391Z,100425.13
2023-05-11T18:46:39.016Z,100430.94
2023-05-11T18:49:06.510Z,100429.69
2023-05-11T18:51:33.902Z,100422.09
2023-05-11T18:54:01.374Z,100428.25
2023-05-11T18:56:31.321Z,100432.91
2023-05-11T18:58:59.005Z,100432.03
2023-05-11T19:01:36.248Z,100428.41
2023-05-11T19:04:14.512Z,100442.56
2023-05-11T19:06:41.912Z,100436.50
2023-05-11T19:09:09.358Z,100444.28
2023-05-11T19:11:40.191Z,100450.84
2023-05-11T19:14:07.784Z,100457.22
2023-05-11T19:16:35.863Z,100453.25
2023-05-11T19:19:04.004Z,100452.13
2023-05-11T19:21:31.622Z,100457.34
2023-05-11T19:23:59.068Z,100469.31
2023-05-11T19:26:26.849Z,100467.91
2023-05-11T19:28:54.197Z,100468.63
2023-05-11T19:31:22.767Z,100468.53
2023-05-11T19:33:50.088Z,100468.41
2023-05-11T19:36:17.876Z,100467.50
2023-05-11T19:38:45.256Z,100475.03
2023-05-11T19:41:13.344Z,100482.06
2023-05-11T19:43:40.803Z,100483.66
2023-05-11T19:46:11.058Z,100482.53
2023-05-11T19:48:38.787Z,100484.00
2023-05-11T19:51:06.276Z,100486.16
2023-05-11T19:53:36.976Z,100488.34
2023-05-11T19:56:04.664Z,100490.63
2023-05-11T19:58:32.351Z,100497.69
2023-05-11T20:01:00.030Z,100488.81
2023-05-11T20:03:28.881Z,100489.94
2023-05-11T20:05:56.512Z,100487.91
2023-05-11T20:08:23.947Z,100499.75
2023-05-11T20:10:51.619Z,100497.00
2023-05-11T20:13:19.129Z,100501.56
2023-05-11T20:15:46.887Z,100510.44
2023-05-11T20:18:14.400Z,100509.09
2023-05-11T20:20:41.986Z,100511.94
2023-05-11T20:23:09.432Z,100518.75
2023-05-11T20:25:40.102Z,100516.38
2023-05-11T20:28:07.524Z,100511.72
2023-05-11T20:30:34.925Z,100517.28
2023-05-11T20:35:35.710Z,100510.22
2023-05-11T20:38:03.142Z,100513.53
2023-05-11T20:40:30.714Z,100511.94
2023-05-11T20:42:58.171Z,100519.44
2023-05-11T20:45:25.863Z,100513.66
2023-05-11T20:47:53.287Z,100517.63
2023-05-11T20:50:21.629Z,100521.38
2023-05-11T20:52:49.086Z,100514.22
2023-05-11T20:55:17.714Z,100514.91
2023-05-11T20:57:45.358Z,100509.69
2023-05-11T21:00:16.147Z,100514.91
2023-05-11T21:02:44.544Z,100507.41
2023-05-11T21:05:12.052Z,100515.44
2023-05-11T21:07:39.601Z,100511.47
2023-05-11T21:10:07.386Z,100504.50
2023-05-11T21:12:34.747Z,100509.34
2023-05-11T21:15:02.247Z,100505.00
2023-05-11T21:17:30.050Z,100510.34
2023-05-11T21:19:57.430Z,100506.81
2023-05-11T21:22:24.786Z,100508.84
2023-05-11T21:24:52.218Z,100511.59
2023-05-11T21:27:19.625Z,100508.66
2023-05-11T21:29:48.180Z,100505.34
2023-05-11T21:32:15.551Z,100511.91
2023-05-11T21:34:43.795Z,100511.91
2023-05-11T21:37:14.505Z,100514.31
2023-05-11T21:39:42.197Z,100506.25
2023-05-11T21:42:09.688Z,100512.41
2023-05-11T21:44:37.302Z,100504.66
2023-05-11T21:47:05.146Z,100513.31
2023-05-11T21:49:33.432Z,100509.44
2023-05-11T21:52:00.808Z,100513.84
2023-05-11T21:54:28.138Z,100513.22
2023-05-11T21:56:55.493Z,100519.47
2023-05-11T21:59:26.617Z,100514.00
2023-05-11T22:01:56.630Z,100521.72
2023-05-11T22:04:24.068Z,100515.72
2023-05-11T22:06:51.561Z,100531.63
2023-05-11T22:09:18.952Z,100528.13
2023-05-11T22:11:46.422Z,100525.72
2023-05-11T22:14:13.773Z,100519.78
2023-05-11T22:16:41.330Z,100517.75
2023-05-11T22:19:09.067Z,100518.53
2023-05-11T22:21:36.478Z,100514.22
2023-05-11T22:24:04.338Z,100518.19
2023-05-11T22:26:31.827Z,100519.69
2023-05-11T22:28:59.264Z,100523.09
2023-05-11T22:31:27.146Z,100524.69
2023-05-11T22:33:54.977Z,100527.88
2023-05-11T22:36:22.353Z,100519.69
2023-05-11T22:38:49.876Z,100532.34
2023-05-11T22:41:17.321Z,100531.75
2023-05-11T22:43:44.643Z,100533.69
2023-05-11T22:46:12.476Z,100531.75
2023-05-11T22:48:39.898Z,100528.47
2023-05-11T22:51:07.748Z,100529.47
2023-05-11T22:53:35.096Z,100528.78
2023-05-11T22:56:07.569Z,100517.84
2023-05-11T22:58:35.113Z,100523.88
2023-05-11T23:01:02.531Z,100526.16
2023-05-11T23:03:30.354Z,100524.22
2023-05-11T23:05:57.749Z,100524.56
2023-05-11T23:08:26.683Z,100528.69
2023-05-11T23:10:54.224Z,100530.63
2023-05-11T23:13:21.604Z,100531.06
2023-05-11T23:15:49.367Z,100536.66
2023-05-11T23:18:17.014Z,100535.88
2023-05-11T23:20:44.439Z,100535.50
2023-05-11T23:23:12.128Z,100539.72
2023-05-11T23:25:39.544Z,100536.09
2023-05-11T23:28:11.416Z,100532.19
2023-05-11T23:30:38.935Z,100539.72
2023-05-11T23:33:06.739Z,100539.72
2023-05-11T23:35:34.157Z,100531.41
2023-05-11T23:38:01.525Z,100535.50
2023-05-11T23:40:29.055Z,100534.47
2023-05-11T23:42:57.046Z,100538.00
2023-05-11T23:45:26.120Z,100529.69
2023-05-11T23:47:53.763Z,100522.97
2023-05-11T23:50:21.285Z,100525.72
2023-05-11T23:52:49.685Z,100527.88
2023-05-11T23:55:17.869Z,100527.44
2023-05-11T23:57:45.276Z,100530.06
